sensor_id;sensor_type;location;lat;lon;timestamp;pressure;altitude;pressure_sealevel;temperature;humidity
15678;BME280;7939;50.814;6.368;2023-04-09T00:00:42;100791.50;;;12.89;59.56
15678;BME280;7939;50.814;6.368;2023-04-09T00:03:08;100787.19;;;12.88;59.49
15678;BME280;7939;50.814;6.368;2023-04-09T00:05:37;100787.19;;;12.87;60.38
15678;BME280;7939;50.814;6.368;2023-04-09T00:08:04;100789.75;;;12.85;59.87
15678;BME280;7939;50.814;6.368;2023-04-09T00:10:31;100787.19;;;12.84;59.33
15678;BME280;7939;50.814;6.368;2023-04-09T00:12:59;100786.34;;;12.83;59.52
15678;BME280;7939;50.814;6.368;2023-04-09T00:15:26;100795.75;;;12.83;59.96
15678;BME280;7939;50.814;6.368;2023-04-09T00:17:52;100789.72;;;12.81;59.35
15678;BME280;7939;50.814;6.368;2023-04-09T00:20:20;100788.88;;;12.79;59.27
15678;BME280;7939;50.814;6.368;2023-04-09T00:22:46;100792.28;;;12.79;59.83
15678;BME280;7939;50.814;6.368;2023-04-09T00:25:14;100786.28;;;12.79;59.99
15678;BME280;7939;50.814;6.368;2023-04-09T00:27:40;100788.84;;;12.77;59.08
15678;BME280;7939;50.814;6.368;2023-04-09T00:30:09;100785.41;;;12.75;59.38
15678;BME280;7939;50.814;6.368;2023-04-09T00:32:36;100774.28;;;12.75;60.40
15678;BME280;7939;50.814;6.368;2023-04-09T00:35:03;100785.41;;;12.74;59.31
15678;BME280;7939;50.814;6.368;2023-04-09T00:37:30;100776.84;;;12.73;59.76
15678;BME280;7939;50.814;6.368;2023-04-09T00:39:56;100781.13;;;12.73;59.66
15678;BME280;7939;50.814;6.368;2023-04-09T00:42:23;100777.69;;;12.72;59.72
15678;BME280;7939;50.814;6.368;2023-04-09T00:44:50;100782.84;;;12.72;58.99
15678;BME280;7939;50.814;6.368;2023-04-09T00:47:18;100779.41;;;12.70;59.74
15678;BME280;7939;50.814;6.368;2023-04-09T00:49:44;100777.66;;;12.69;59.46
15678;BME280;7939;50.814;6.368;2023-04-09T00:52:11;100776.81;;;12.67;59.56
15678;BME280;7939;50.814;6.368;2023-04-09T00:54:37;100771.66;;;12.67;60.23
15678;BME280;7939;50.814;6.368;2023-04-09T00:57:04;100774.25;;;12.67;59.63
15678;BME280;7939;50.814;6.368;2023-04-09T00:59:31;100776.81;;;12.65;59.07
15678;BME280;7939;50.814;6.368;2023-04-09T01:01:58;100774.22;;;12.64;58.92
15678;BME280;7939;50.814;6.368;2023-04-09T01:04:26;100783.59;;;12.62;59.35
15678;BME280;7939;50.814;6.368;2023-04-09T01:06:58;100771.63;;;12.62;59.85
15678;BME280;7939;50.814;6.368;2023-04-09T01:09:31;100769.06;;;12.61;58.90
15678;BME280;7939;50.814;6.368;2023-04-09T01:12:20;100768.22;;;12.60;59.34
15678;BME280;7939;50.814;6.368;2023-04-09T01:14:55;100763.94;;;12.59;59.54
15678;BME280;7939;50.814;6.368;2023-04-09T01:17:45;100766.50;;;12.58;59.70
15678;BME280;7939;50.814;6.368;2023-04-09T01:20:21;100757.94;;;12.57;59.13
15678;BME280;7939;50.814;6.368;2023-04-09T01:22:56;100756.19;;;12.56;58.88
15678;BME280;7939;50.814;6.368;2023-04-09T01:25:34;100759.63;;;12.55;58.75
15678;BME280;7939;50.814;6.368;2023-04-09T01:28:21;100762.19;;;12.54;59.55
15678;BME280;7939;50.814;6.368;2023-04-09T01:30:51;100767.28;;;12.52;58.62
15678;BME280;7939;50.814;6.368;2023-04-09T01:33:19;100762.16;;;12.52;58.74
15678;BME280;7939;50.814;6.368;2023-04-09T01:35:47;100753.63;;;12.52;59.13
15678;BME280;7939;50.814;6.368;2023-04-09T01:38:17;100757.00;;;12.51;59.69
15678;BME280;7939;50.814;6.368;2023-04-09T01:40:45;100761.28;;;12.47;59.14
15678;BME280;7939;50.814;6.368;2023-04-09T01:43:12;100758.69;;;12.46;59.50
15678;BME280;7939;50.814;6.368;2023-04-09T01:45:41;100761.25;;;12.46;59.08
15678;BME280;7939;50.814;6.368;2023-04-09T01:48:09;100757.00;;;12.45;58.39
15678;BME280;7939;50.814;6.368;2023-04-09T01:50:37;100750.13;;;12.43;59.26
15678;BME280;7939;50.814;6.368;2023-04-09T01:53:04;100750.13;;;12.42;58.81
15678;BME280;7939;50.814;6.368;2023-04-09T01:55:30;100752.66;;;12.40;58.68
15678;BME280;7939;50.814;6.368;2023-04-09T01:57:57;100754.38;;;12.38;58.44
15678;BME280;7939;50.814;6.368;2023-04-09T02:00:26;100760.34;;;12.39;58.85
15678;BME280;7939;50.814;6.368;2023-04-09T02:03:03;100755.19;;;12.37;59.10
15678;BME280;7939;50.814;6.368;2023-04-09T02:05:35;100752.63;;;12.37;58.78
15678;BME280;7939;50.814;6.368;2023-04-09T02:08:04;100761.16;;;12.36;58.68
15678;BME280;7939;50.814;6.368;2023-04-09T02:10:34;100752.63;;;12.36;58.84
15678;BME280;7939;50.814;6.368;2023-04-09T02:13:04;100760.31;;;12.36;59.02
15678;BME280;7939;50.814;6.368;2023-04-09T02:15:33;100750.91;;;12.33;58.10
15678;BME280;7939;50.814;6.368;2023-04-09T02:18:03;100756.03;;;12.33;58.46
15678;BME280;7939;50.814;6.368;2023-04-09T02:20:30;100746.59;;;12.31;58.14
15678;BME280;7939;50.814;6.368;2023-04-09T02:22:56;100745.75;;;12.32;58.22
15678;BME280;7939;50.814;6.368;2023-04-09T02:25:23;100750.00;;;12.30;58.73
15678;BME280;7939;50.814;6.368;2023-04-09T02:27:50;100742.31;;;12.30;58.55
15678;BME280;7939;50.814;6.368;2023-04-09T02:30:16;100745.75;;;12.29;58.83
15678;BME280;7939;50.814;6.368;2023-04-09T02:32:43;100747.44;;;12.28;58.55
15678;BME280;7939;50.814;6.368;2023-04-09T02:35:11;100743.16;;;12.26;58.48
15678;BME280;7939;50.814;6.368;2023-04-09T02:37:38;100735.47;;;12.26;58.43
15678;BME280;7939;50.814;6.368;2023-04-09T02:40:06;100729.44;;;12.24;58.67
15678;BME280;7939;50.814;6.368;2023-04-09T02:42:32;100729.44;;;12.24;59.14
15678;BME280;7939;50.814;6.368;2023-04-09T02:44:59;100729.44;;;12.22;58.82
15678;BME280;7939;50.814;6.368;2023-04-09T02:47:26;100724.31;;;12.22;58.50
15678;BME280;7939;50.814;6.368;2023-04-09T02:49:54;100722.59;;;12.20;58.55
15678;BME280;7939;50.814;6.368;2023-04-09T02:52:22;100717.47;;;12.20;57.91
15678;BME280;7939;50.814;6.368;2023-04-09T02:54:51;100720.88;;;12.19;58.89
15678;BME280;7939;50.814;6.368;2023-04-09T02:57:17;100720.00;;;12.17;58.05
15678;BME280;7939;50.814;6.368;2023-04-09T02:59:44;100717.44;;;12.17;59.04
15678;BME280;7939;50.814;6.368;2023-04-09T03:02:10;100726.84;;;12.16;58.42
15678;BME280;7939;50.814;6.368;2023-04-09T03:04:37;100714.88;;;12.15;58.53
15678;BME280;7939;50.814;6.368;2023-04-09T03:07:04;100716.59;;;12.14;58.26
15678;BME280;7939;50.814;6.368;2023-04-09T03:09:32;100712.31;;;12.13;58.32
15678;BME280;7939;50.814;6.368;2023-04-09T03:11:58;100712.28;;;12.12;58.96
15678;BME280;7939;50.814;6.368;2023-04-09T03:14:26;100708.84;;;12.10;58.20
15678;BME280;7939;50.814;6.368;2023-04-09T03:16:53;100719.09;;;12.10;59.21
15678;BME280;7939;50.814;6.368;2023-04-09T03:19:19;100713.09;;;12.08;58.27
15678;BME280;7939;50.814;6.368;2023-04-09T03:21:46;100707.13;;;12.07;58.23
15678;BME280;7939;50.814;6.368;2023-04-09T03:24:13;100715.63;;;12.06;58.17
15678;BME280;7939;50.814;6.368;2023-04-09T03:26:41;100709.66;;;12.04;57.98
15678;BME280;7939;50.814;6.368;2023-04-09T03:29:08;100705.38;;;12.03;58.56
15678;BME280;7939;50.814;6.368;2023-04-09T03:31:35;100709.63;;;12.03;57.94
15678;BME280;7939;50.814;6.368;2023-04-09T03:34:01;100707.94;;;12.02;58.76
15678;BME280;7939;50.814;6.368;2023-04-09T03:36:28;100709.63;;;12.01;58.21
15678;BME280;7939;50.814;6.368;2023-04-09T03:38:55;100712.16;;;12.00;57.94
15678;BME280;7939;50.814;6.368;2023-04-09T03:41:22;100709.59;;;12.00;57.86
15678;BME280;7939;50.814;6.368;2023-04-09T03:43:50;100705.31;;;11.99;58.07
15678;BME280;7939;50.814;6.368;2023-04-09T03:46:17;100707.03;;;11.97;58.27
15678;BME280;7939;50.814;6.368;2023-04-09T03:48:44;100711.28;;;11.96;57.77
15678;BME280;7939;50.814;6.368;2023-04-09T03:51:11;100712.13;;;11.95;58.66
15678;BME280;7939;50.814;6.368;2023-04-09T03:53:38;100704.41;;;11.94;58.16
15678;BME280;7939;50.814;6.368;2023-04-09T03:56:05;100705.25;;;11.93;57.62
15678;BME280;7939;50.814;6.368;2023-04-09T03:58:31;100701.84;;;11.92;58.75
15678;BME280;7939;50.814;6.368;2023-04-09T04:00:59;100702.69;;;11.91;58.50
15678;BME280;7939;50.814;6.368;2023-04-09T04:03:26;100705.25;;;11.91;57.81
15678;BME280;7939;50.814;6.368;2023-04-09T04:05:52;100697.56;;;11.90;57.66
15678;BME280;7939;50.814;6.368;2023-04-09T04:08:19;100700.94;;;11.87;57.87
15678;BME280;7939;50.814;6.368;2023-04-09T04:10:46;100703.50;;;11.85;58.38
15678;BME280;7939;50.814;6.368;2023-04-09T04:13:12;100709.47;;;11.83;58.34
15678;BME280;7939;50.814;6.368;2023-04-09T04:15:39;100705.19;;;11.83;58.23
15678;BME280;7939;50.814;6.368;2023-04-09T04:18:08;100701.78;;;11.83;57.68
15678;BME280;7939;50.814;6.368;2023-04-09T04:20:35;100703.47;;;11.82;58.04
15678;BME280;7939;50.814;6.368;2023-04-09T04:23:02;100704.28;;;11.81;58.43
15678;BME280;7939;50.814;6.368;2023-04-09T04:25:29;100704.25;;;11.80;58.20
15678;BME280;7939;50.814;6.368;2023-04-09T04:27:56;100701.69;;;11.78;58.39
15678;BME280;7939;50.814;6.368;2023-04-09T04:30:23;100708.50;;;11.78;58.29
15678;BME280;7939;50.814;6.368;2023-04-09T04:32:49;100710.22;;;11.76;57.71
15678;BME280;7939;50.814;6.368;2023-04-09T04:35:18;100701.63;;;11.74;58.21
15678;BME280;7939;50.814;6.368;2023-04-09T04:37:44;100705.91;;;11.73;57.59
15678;BME280;7939;50.814;6.368;2023-04-09T04:40:11;100707.59;;;11.73;58.40
15678;BME280;7939;50.814;6.368;2023-04-09T04:42:37;100703.34;;;11.72;58.57
15678;BME280;7939;50.814;6.368;2023-04-09T04:45:05;100698.22;;;11.72;58.43
15678;BME280;7939;50.814;6.368;2023-04-09T04:47:32;100701.63;;;11.71;57.65
15678;BME280;7939;50.814;6.368;2023-04-09T04:49:58;100699.06;;;11.69;57.89
15678;BME280;7939;50.814;6.368;2023-04-09T04:52:26;100697.31;;;11.67;57.91
15678;BME280;7939;50.814;6.368;2023-04-09T04:54:53;100695.59;;;11.66;58.31
15678;BME280;7939;50.814;6.368;2023-04-09T04:57:19;100700.69;;;11.64;57.63
15678;BME280;7939;50.814;6.368;2023-04-09T04:59:46;100704.97;;;11.64;57.67
15678;BME280;7939;50.814;6.368;2023-04-09T05:02:13;100702.38;;;11.62;57.62
15678;BME280;7939;50.814;6.368;2023-04-09T05:04:40;100699.81;;;11.62;58.51
15678;BME280;7939;50.814;6.368;2023-04-09T05:07:06;100696.38;;;11.61;57.89
15678;BME280;7939;50.814;6.368;2023-04-09T05:09:34;100693.81;;;11.60;58.05
15678;BME280;7939;50.814;6.368;2023-04-09T05:12:01;100697.22;;;11.59;57.75
15678;BME280;7939;50.814;6.368;2023-04-09T05:14:28;100697.22;;;11.57;58.19
15678;BME280;7939;50.814;6.368;2023-04-09T05:16:54;100701.47;;;11.57;58.19
15678;BME280;7939;50.814;6.368;2023-04-09T05:19:21;100701.44;;;11.55;57.99
15678;BME280;7939;50.814;6.368;2023-04-09T05:21:47;100701.44;;;11.54;57.90
15678;BME280;7939;50.814;6.368;2023-04-09T05:24:14;100709.97;;;11.53;58.24
15678;BME280;7939;50.814;6.368;2023-04-09T05:26:42;100702.28;;;11.53;57.63
15678;BME280;7939;50.814;6.368;2023-04-09T05:29:09;100708.25;;;11.50;58.00
15678;BME280;7939;50.814;6.368;2023-04-09T05:31:35;100709.91;;;11.50;58.33
15678;BME280;7939;50.814;6.368;2023-04-09T05:34:02;100704.78;;;11.48;57.80
15678;BME280;7939;50.814;6.368;2023-04-09T05:36:29;100698.81;;;11.48;57.39
15678;BME280;7939;50.814;6.368;2023-04-09T05:38:56;100702.22;;;11.48;57.20
15678;BME280;7939;50.814;6.368;2023-04-09T05:41:23;100699.66;;;11.47;57.59
15678;BME280;7939;50.814;6.368;2023-04-09T05:43:51;100698.78;;;11.46;58.08
15678;BME280;7939;50.814;6.368;2023-04-09T05:46:17;100696.22;;;11.46;57.85
15678;BME280;7939;50.814;6.368;2023-04-09T05:48:44;100703.06;;;11.46;57.98
15678;BME280;7939;50.814;6.368;2023-04-09T05:51:11;100703.91;;;11.45;57.75
15678;BME280;7939;50.814;6.368;2023-04-09T05:53:37;100699.59;;;11.44;58.14
15678;BME280;7939;50.814;6.368;2023-04-09T05:56:12;100697.03;;;11.44;57.28
15678;BME280;7939;50.814;6.368;2023-04-09T05:58:38;100697.88;;;11.43;57.88
15678;BME280;7939;50.814;6.368;2023-04-09T06:01:06;100697.03;;;11.42;57.56
15678;BME280;7939;50.814;6.368;2023-04-09T06:03:33;100692.75;;;11.41;57.82
15678;BME280;7939;50.814;6.368;2023-04-09T06:05:59;100694.47;;;11.42;57.72
15678;BME280;7939;50.814;6.368;2023-04-09T06:08:26;100695.31;;;11.41;58.49
15678;BME280;7939;50.814;6.368;2023-04-09T06:10:53;100703.00;;;11.40;57.99
15678;BME280;7939;50.814;6.368;2023-04-09T06:13:19;100697.00;;;11.39;58.03
15678;BME280;7939;50.814;6.368;2023-04-09T06:15:46;100697.84;;;11.38;58.35
15678;BME280;7939;50.814;6.368;2023-04-09T06:18:14;100704.69;;;11.39;57.73
15678;BME280;7939;50.814;6.368;2023-04-09T06:20:41;100696.97;;;11.38;57.44
15678;BME280;7939;50.814;6.368;2023-04-09T06:23:08;100697.84;;;11.38;57.73
15678;BME280;7939;50.814;6.368;2023-04-09T06:25:35;100704.63;;;11.36;57.95
15678;BME280;7939;50.814;6.368;2023-04-09T06:28:02;100711.47;;;11.37;57.76
15678;BME280;7939;50.814;6.368;2023-04-09T06:30:29;100718.28;;;11.37;58.09
15678;BME280;7939;50.814;6.368;2023-04-09T06:32:56;100712.31;;;11.36;58.02
15678;BME280;7939;50.814;6.368;2023-04-09T06:35:24;100719.97;;;11.34;57.99
15678;BME280;7939;50.814;6.368;2023-04-09T06:37:50;100716.56;;;11.34;57.67
15678;BME280;7939;50.814;6.368;2023-04-09T06:40:17;100715.69;;;11.32;57.92
15678;BME280;7939;50.814;6.368;2023-04-09T06:42:44;100723.34;;;11.30;58.48
15678;BME280;7939;50.814;6.368;2023-04-09T06:45:11;100715.66;;;11.30;58.49
15678;BME280;7939;50.814;6.368;2023-04-09T06:47:37;100723.34;;;11.30;58.47
15678;BME280;7939;50.814;6.368;2023-04-09T06:50:05;100725.06;;;11.31;58.93
15678;BME280;7939;50.814;6.368;2023-04-09T06:52:33;100718.25;;;11.32;58.38
15678;BME280;7939;50.814;6.368;2023-04-09T06:54:59;100726.78;;;11.32;58.40
15678;BME280;7939;50.814;6.368;2023-04-09T06:57:26;100718.25;;;11.33;58.42
15678;BME280;7939;50.814;6.368;2023-04-09T06:59:53;100719.13;;;11.35;58.94
15678;BME280;7939;50.814;6.368;2023-04-09T07:02:20;100726.81;;;11.37;58.87
15678;BME280;7939;50.814;6.368;2023-04-09T07:04:46;100725.13;;;11.38;58.89
15678;BME280;7939;50.814;6.368;2023-04-09T07:07:13;100726.88;;;11.39;59.18
15678;BME280;7939;50.814;6.368;2023-04-09T07:09:41;100722.59;;;11.39;58.87
15678;BME280;7939;50.814;6.368;2023-04-09T07:12:08;100727.72;;;11.39;59.18
15678;BME280;7939;50.814;6.368;2023-04-09T07:14:35;100726.03;;;11.41;58.83
15678;BME280;7939;50.814;6.368;2023-04-09T07:17:01;100726.88;;;11.40;59.09
15678;BME280;7939;50.814;6.368;2023-04-09T07:19:28;100729.44;;;11.42;58.44
15678;BME280;7939;50.814;6.368;2023-04-09T07:21:55;100730.31;;;11.42;58.53
15678;BME280;7939;50.814;6.368;2023-04-09T07:24:21;100728.59;;;11.43;59.22
15678;BME280;7939;50.814;6.368;2023-04-09T07:26:50;100728.63;;;11.44;58.98
15678;BME280;7939;50.814;6.368;2023-04-09T07:29:16;100727.78;;;11.45;59.49
15678;BME280;7939;50.814;6.368;2023-04-09T07:31:45;100740.59;;;11.47;59.24
15678;BME280;7939;50.814;6.368;2023-04-09T07:34:11;100747.44;;;11.49;59.46
15678;BME280;7939;50.814;6.368;2023-04-09T07:36:38;100748.34;;;11.51;59.56
15678;BME280;7939;50.814;6.368;2023-04-09T07:39:05;100739.81;;;11.52;59.40
15678;BME280;7939;50.814;6.368;2023-04-09T07:41:32;100742.38;;;11.54;59.69
15678;BME280;7939;50.814;6.368;2023-04-09T07:43:59;100742.38;;;11.54;59.28
15678;BME280;7939;50.814;6.368;2023-04-09T07:46:27;100745.81;;;11.56;59.28
15678;BME280;7939;50.814;6.368;2023-04-09T07:48:54;100741.56;;;11.56;59.60
15678;BME280;7939;50.814;6.368;2023-04-09T07:51:20;100741.59;;;11.58;59.09
15678;BME280;7939;50.814;6.368;2023-04-09T07:53:47;100751.00;;;11.60;59.51
15678;BME280;7939;50.814;6.368;2023-04-09T07:56:13;100756.16;;;11.64;60.36
15678;BME280;7939;50.814;6.368;2023-04-09T07:58:41;100743.38;;;11.64;59.61
15678;BME280;7939;50.814;6.368;2023-04-09T08:01:10;100750.22;;;11.66;60.23
15678;BME280;7939;50.814;6.368;2023-04-09T08:03:37;100747.66;;;11.68;59.38
15678;BME280;7939;50.814;6.368;2023-04-09T08:06:04;100751.13;;;11.70;59.89
15678;BME280;7939;50.814;6.368;2023-04-09T08:08:30;100747.69;;;11.69;60.19
15678;BME280;7939;50.814;6.368;2023-04-09T08:10:57;100743.44;;;11.73;59.27
15678;BME280;7939;50.814;6.368;2023-04-09T08:13:24;100751.13;;;11.74;59.99
15678;BME280;7939;50.814;6.368;2023-04-09T08:15:50;100750.34;;;11.78;59.57
15678;BME280;7939;50.814;6.368;2023-04-09T08:18:18;100746.94;;;11.79;59.63
15678;BME280;7939;50.814;6.368;2023-04-09T08:20:45;100747.00;;;11.82;59.71
15678;BME280;7939;50.814;6.368;2023-04-09T08:23:11;100751.28;;;11.83;59.36
15678;BME280;7939;50.814;6.368;2023-04-09T08:25:38;100748.72;;;11.83;59.82
15678;BME280;7939;50.814;6.368;2023-04-09T08:28:05;100746.16;;;11.83;59.56
15678;BME280;7939;50.814;6.368;2023-04-09T08:30:32;100751.28;;;11.82;59.08
15678;BME280;7939;50.814;6.368;2023-04-09T08:32:59;100758.19;;;11.89;58.60
15678;BME280;7939;50.814;6.368;2023-04-09T08:35:29;100749.66;;;11.93;59.78
15678;BME280;7939;50.814;6.368;2023-04-09T08:37:56;100749.72;;;11.99;58.57
15678;BME280;7939;50.814;6.368;2023-04-09T08:40:22;100746.38;;;12.03;58.62
15678;BME280;7939;50.814;6.368;2023-04-09T08:42:52;100752.41;;;12.08;58.28
15678;BME280;7939;50.814;6.368;2023-04-09T08:45:20;100747.28;;;12.13;58.18
15678;BME280;7939;50.814;6.368;2023-04-09T08:47:48;100744.78;;;12.19;58.28
15678;BME280;7939;50.814;6.368;2023-04-09T08:50:15;100749.94;;;12.22;58.26
15678;BME280;7939;50.814;6.368;2023-04-09T08:52:45;100737.16;;;12.25;57.54
15678;BME280;7939;50.814;6.368;2023-04-09T08:55:12;100744.88;;;12.27;58.57
15678;BME280;7939;50.814;6.368;2023-04-09T08:57:39;100737.25;;;12.36;57.10
15678;BME280;7939;50.814;6.368;2023-04-09T09:00:07;100743.28;;;12.39;57.28
15678;BME280;7939;50.814;6.368;2023-04-09T09:02:33;100737.31;;;12.43;57.31
15678;BME280;7939;50.814;6.368;2023-04-09T09:05:01;100732.22;;;12.48;56.68
15678;BME280;7939;50.814;6.368;2023-04-09T09:07:28;100730.56;;;12.53;56.71
15678;BME280;7939;50.814;6.368;2023-04-09T09:09:57;100728.03;;;12.59;56.55
15678;BME280;7939;50.814;6.368;2023-04-09T09:12:32;100726.31;;;12.58;57.75
15678;BME280;7939;50.814;6.368;2023-04-09T09:14:59;100727.22;;;12.66;56.91
15678;BME280;7939;50.814;6.368;2023-04-09T09:17:26;100722.13;;;12.71;57.07
15678;BME280;7939;50.814;6.368;2023-04-09T09:19:53;100724.75;;;12.79;56.88
15678;BME280;7939;50.814;6.368;2023-04-09T09:22:19;100717.97;;;12.90;56.01
15678;BME280;7939;50.814;6.368;2023-04-09T09:24:46;100712.91;;;13.04;55.40
15678;BME280;7939;50.814;6.368;2023-04-09T09:30:08;100709.50;;;13.12;53.97
15678;BME280;7939;50.814;6.368;2023-04-09T09:32:36;100709.53;;;13.15;53.24
15678;BME280;7939;50.814;6.368;2023-04-09T09:35:05;100716.38;;;13.19;53.84
15678;BME280;7939;50.814;6.368;2023-04-09T09:37:32;100714.72;;;13.20;53.86
15678;BME280;7939;50.814;6.368;2023-04-09T09:39:59;100718.16;;;13.22;54.07
15678;BME280;7939;50.814;6.368;2023-04-09T09:42:26;100722.44;;;13.25;54.22
15678;BME280;7939;50.814;6.368;2023-04-09T09:44:53;100720.72;;;13.23;53.37
15678;BME280;7939;50.814;6.368;2023-04-09T09:47:22;100709.59;;;13.26;54.35
15678;BME280;7939;50.814;6.368;2023-04-09T09:49:50;100714.75;;;13.28;54.26
15678;BME280;7939;50.814;6.368;2023-04-09T09:52:23;100713.94;;;13.33;54.18
15678;BME280;7939;50.814;6.368;2023-04-09T09:54:51;100712.22;;;13.38;53.59
15678;BME280;7939;50.814;6.368;2023-04-09T09:57:19;100718.22;;;13.43;54.28
15678;BME280;7939;50.814;6.368;2023-04-09T09:59:51;100713.13;;;13.46;54.05
15678;BME280;7939;50.814;6.368;2023-04-09T10:02:20;100709.66;;;13.44;54.41
15678;BME280;7939;50.814;6.368;2023-04-09T10:04:49;100708.84;;;13.47;53.08
15678;BME280;7939;50.814;6.368;2023-04-09T10:07:18;100709.69;;;13.50;53.63
15678;BME280;7939;50.814;6.368;2023-04-09T10:09:48;100711.44;;;13.59;52.90
15678;BME280;7939;50.814;6.368;2023-04-09T10:12:16;100718.31;;;13.65;54.27
15678;BME280;7939;50.814;6.368;2023-04-09T10:14:43;100708.03;;;13.65;53.42
15678;BME280;7939;50.814;6.368;2023-04-09T10:17:10;100699.47;;;13.67;51.00
15678;BME280;7939;50.814;6.368;2023-04-09T10:19:40;100696.94;;;13.70;52.64
15678;BME280;7939;50.814;6.368;2023-04-09T10:22:11;100701.19;;;13.74;52.27
15678;BME280;7939;50.814;6.368;2023-04-09T10:24:39;100698.66;;;13.84;54.37
15678;BME280;7939;50.814;6.368;2023-04-09T10:27:10;100703.78;;;13.88;53.72
15678;BME280;7939;50.814;6.368;2023-04-09T10:29:42;100698.66;;;13.91;52.82
15678;BME280;7939;50.814;6.368;2023-04-09T10:32:10;100708.94;;;13.96;52.14
15678;BME280;7939;50.814;6.368;2023-04-09T10:34:39;100702.94;;;13.98;51.65
15678;BME280;7939;50.814;6.368;2023-04-09T10:37:06;100696.09;;;13.97;52.28
15678;BME280;7939;50.814;6.368;2023-04-09T10:39:38;100685.81;;;13.99;51.47
15678;BME280;7939;50.814;6.368;2023-04-09T10:42:07;100689.22;;;14.06;52.31
15678;BME280;7939;50.814;6.368;2023-04-09T10:44:38;100685.81;;;14.14;51.78
15678;BME280;7939;50.814;6.368;2023-04-09T10:47:07;100680.66;;;14.11;51.48
15678;BME280;7939;50.814;6.368;2023-04-09T10:49:37;100690.09;;;14.15;50.80
15678;BME280;7939;50.814;6.368;2023-04-09T10:52:05;100680.66;;;14.11;50.51
15678;BME280;7939;50.814;6.368;2023-04-09T10:54:41;100675.53;;;14.13;50.89
15678;BME280;7939;50.814;6.368;2023-04-09T10:57:13;100672.09;;;14.18;50.68
15678;BME280;7939;50.814;6.368;2023-04-09T10:59:41;100679.81;;;14.21;50.27
15678;BME280;7939;50.814;6.368;2023-04-09T11:02:30;100670.38;;;14.25;50.20
15678;BME280;7939;50.814;6.368;2023-04-09T11:05:18;100667.81;;;14.29;50.40
15678;BME280;7939;50.814;6.368;2023-04-09T11:07:53;100666.09;;;14.33;49.89
15678;BME280;7939;50.814;6.368;2023-04-09T11:10:24;100657.53;;;14.34;50.48
15678;BME280;7939;50.814;6.368;2023-04-09T11:12:50;100654.09;;;14.41;50.79
15678;BME280;7939;50.814;6.368;2023-04-09T11:15:18;100651.53;;;14.47;50.00
15678;BME280;7939;50.814;6.368;2023-04-09T11:17:46;100651.53;;;14.52;50.10
15678;BME280;7939;50.814;6.368;2023-04-09T11:20:13;100651.53;;;14.52;49.85
15678;BME280;7939;50.814;6.368;2023-04-09T11:22:39;100642.94;;;14.51;50.19
15678;BME280;7939;50.814;6.368;2023-04-09T11:25:06;100649.81;;;14.54;49.72
15678;BME280;7939;50.814;6.368;2023-04-09T11:27:37;100642.97;;;14.53;49.85
15678;BME280;7939;50.814;6.368;2023-04-09T11:30:05;100642.94;;;14.56;48.60
15678;BME280;7939;50.814;6.368;2023-04-09T11:32:32;100628.38;;;14.55;48.95
15678;BME280;7939;50.814;6.368;2023-04-09T11:34:58;100624.94;;;14.56;49.09
15678;BME280;7939;50.814;6.368;2023-04-09T11:37:25;100624.06;;;14.60;49.22
15678;BME280;7939;50.814;6.368;2023-04-09T11:39:52;100631.78;;;14.62;48.48
15678;BME280;7939;50.814;6.368;2023-04-09T11:42:19;100624.91;;;14.67;49.00
15678;BME280;7939;50.814;6.368;2023-04-09T11:44:48;100624.03;;;14.69;48.59
15678;BME280;7939;50.814;6.368;2023-04-09T11:47:15;100619.72;;;14.79;48.25
15678;BME280;7939;50.814;6.368;2023-04-09T11:49:44;100616.28;;;14.77;48.75
15678;BME280;7939;50.814;6.368;2023-04-09T11:52:12;100624.00;;;14.81;48.11
15678;BME280;7939;50.814;6.368;2023-04-09T11:54:40;100624.00;;;14.81;47.76
15678;BME280;7939;50.814;6.368;2023-04-09T11:57:07;100623.97;;;14.83;48.01
15678;BME280;7939;50.814;6.368;2023-04-09T11:59:37;100626.53;;;14.91;49.31
15678;BME280;7939;50.814;6.368;2023-04-09T12:02:06;100618.84;;;14.84;47.22
15678;BME280;7939;50.814;6.368;2023-04-09T12:04:32;100622.25;;;14.90;47.95
15678;BME280;7939;50.814;6.368;2023-04-09T12:06:59;100623.06;;;14.98;48.37
15678;BME280;7939;50.814;6.368;2023-04-09T12:09:26;100617.06;;;14.97;48.20
15678;BME280;7939;50.814;6.368;2023-04-09T12:11:52;100614.50;;;14.93;48.22
15678;BME280;7939;50.814;6.368;2023-04-09T12:14:20;100616.22;;;14.98;48.95
15678;BME280;7939;50.814;6.368;2023-04-09T12:16:50;100617.94;;;14.98;48.27
15678;BME280;7939;50.814;6.368;2023-04-09T12:19:18;100607.63;;;14.95;48.24
15678;BME280;7939;50.814;6.368;2023-04-09T12:21:46;100611.06;;;14.98;48.29
15678;BME280;7939;50.814;6.368;2023-04-09T12:24:13;100613.63;;;14.98;48.31
15678;BME280;7939;50.814;6.368;2023-04-09T12:26:41;100612.75;;;15.01;48.40
15678;BME280;7939;50.814;6.368;2023-04-09T12:29:08;100616.19;;;15.03;48.14
15678;BME280;7939;50.814;6.368;2023-04-09T12:31:35;100614.47;;;15.02;48.67
15678;BME280;7939;50.814;6.368;2023-04-09T12:34:01;100617.03;;;15.00;48.24
15678;BME280;7939;50.814;6.368;2023-04-09T12:36:29;100626.47;;;15.01;47.73
15678;BME280;7939;50.814;6.368;2023-04-09T12:38:56;100611.03;;;15.01;48.55
15678;BME280;7939;50.814;6.368;2023-04-09T12:41:22;100611.03;;;15.03;48.35
15678;BME280;7939;50.814;6.368;2023-04-09T12:43:49;100614.41;;;15.13;48.45
15678;BME280;7939;50.814;6.368;2023-04-09T12:46:16;100601.53;;;15.14;48.81
15678;BME280;7939;50.814;6.368;2023-04-09T12:48:43;100606.72;;;15.11;48.42
15678;BME280;7939;50.814;6.368;2023-04-09T12:51:10;100606.69;;;15.14;48.76
15678;BME280;7939;50.814;6.368;2023-04-09T12:53:38;100604.16;;;15.06;48.63
15678;BME280;7939;50.814;6.368;2023-04-09T12:56:05;100605.88;;;15.06;48.75
15678;BME280;7939;50.814;6.368;2023-04-09T12:58:32;100608.44;;;15.06;48.60
15678;BME280;7939;50.814;6.368;2023-04-09T13:00:58;100600.72;;;15.06;48.65
15678;BME280;7939;50.814;6.368;2023-04-09T13:03:28;100593.88;;;15.02;48.77
15678;BME280;7939;50.814;6.368;2023-04-09T13:05:55;100591.28;;;15.06;48.17